createdAt,value
2019-04-21T00:01:42.015Z,101139
2019-04-21T00:04:19.920Z,101134
2019-04-21T00:07:00.436Z,101134
2019-04-21T00:09:27.795Z,101131
2019-04-21T00:11:56.963Z,101134
2019-04-21T00:14:14.100Z,101131
2019-04-21T00:16:43.213Z,101133
2019-04-21T00:19:09.371Z,101134
2019-04-21T00:21:39.446Z,101132
2019-04-21T00:24:20.221Z,101130
2019-04-21T00:26:53.123Z,101122
2019-04-21T00:29:27.541Z,101109
2019-04-21T00:31:47.136Z,101127
2019-04-21T00:34:00.489Z,101127
2019-04-21T00:36:40.587Z,101125
2019-04-21T00:39:31.694Z,101106
2019-04-21T00:41:50.596Z,101117
2019-04-21T00:44:08.692Z,101108
2019-04-21T00:46:42.840Z,101113
2019-04-21T00:49:10.533Z,101112
2019-04-21T00:51:54.111Z,101106
2019-04-21T00:54:21.155Z,101102
2019-04-21T00:56:49.501Z,101106
2019-04-21T00:59:16.255Z,101109
2019-04-21T01:01:37.872Z,101100
2019-04-21T01:04:09.754Z,101101
2019-04-21T01:06:42.751Z,101122
2019-04-21T01:09:08.409Z,101100
2019-04-21T01:11:38.986Z,101103
2019-04-21T01:14:05.571Z,101099
2019-04-21T01:16:44.160Z,101101
2019-04-21T01:19:05.330Z,101096
2019-04-21T01:21:14.452Z,101104
2019-04-21T01:23:42.257Z,101096
2019-04-21T01:26:22.847Z,101106
2019-04-21T01:28:58.397Z,101103
2019-04-21T01:31:22.529Z,101103
2019-04-21T01:33:59.221Z,101099
2019-04-21T01:36:24.260Z,101092
2019-04-21T01:38:55.112Z,101091
2019-04-21T01:41:26.516Z,101094
2019-04-21T01:43:53.512Z,101087
2019-04-21T01:46:24.534Z,101089
2019-04-21T01:48:42.775Z,101089
2019-04-21T01:51:14.307Z,101081
2019-04-21T01:53:56.483Z,101085
2019-04-21T01:56:23.854Z,101089
2019-04-21T01:58:42.848Z,101081
2019-04-21T02:01:16.014Z,101078
2019-04-21T02:03:56.869Z,101078
2019-04-21T02:06:21.161Z,101073
2019-04-21T02:08:49.318Z,101070
2019-04-21T02:11:18.827Z,101069
2019-04-21T02:13:57.290Z,101085
2019-04-21T02:16:21.547Z,101068
2019-04-21T02:18:51.818Z,101059
2019-04-21T02:21:04.072Z,101061
2019-04-21T02:23:57.707Z,101061
2019-04-21T02:26:21.255Z,101066
2019-04-21T02:28:51.766Z,101060
2019-04-21T02:36:33.222Z,101057
2019-04-21T02:39:00.263Z,101058
2019-04-21T02:41:26.502Z,101043
2019-04-21T02:43:54.413Z,101043
2019-04-21T02:46:27.137Z,101048
2019-04-21T02:51:23.360Z,101040
2019-04-21T02:54:08.004Z,101046
2019-04-21T02:56:22.669Z,101038
2019-04-21T02:58:57.001Z,101036
2019-04-21T03:03:50.597Z,101038
2019-04-21T03:06:10.885Z,101030
2019-04-21T03:08:50.500Z,101019
2019-04-21T03:11:11.010Z,101021
2019-04-21T03:13:44.595Z,101015
2019-04-21T03:16:23.415Z,101004
2019-04-21T03:18:43.771Z,101004
2019-04-21T03:21:07.557Z,100999
2019-04-21T03:26:10.181Z,100997
2019-04-21T03:31:25.600Z,101003
2019-04-21T03:34:21.404Z,100993
2019-04-21T03:36:37.184Z,100986
2019-04-21T03:38:26.984Z,100993
2019-04-21T03:40:57.393Z,100996
2019-04-21T03:45:49.257Z,100987
2019-04-21T03:50:47.242Z,100976
2019-04-21T03:53:18.601Z,100978
2019-04-21T03:58:31.557Z,100968
2019-04-21T04:01:00.563Z,100975
2019-04-21T04:08:31.858Z,100975
2019-04-21T04:11:05.091Z,100969
2019-04-21T04:15:56.491Z,100971
2019-04-21T04:18:33.918Z,100970
2019-04-21T04:20:45.515Z,100962
2019-04-21T04:23:20.332Z,100972
2019-04-21T04:25:42.831Z,100971
2019-04-21T04:28:22.800Z,100972
2019-04-21T04:30:47.579Z,100977
2019-04-21T04:33:10.582Z,100975
2019-04-21T04:35:53.711Z,100966
2019-04-21T04:38:12.986Z,100971
2019-04-21T04:40:38.730Z,100971
2019-04-21T04:45:41.573Z,100965
2019-04-21T04:48:05.973Z,100960
2019-04-21T04:50:43.320Z,100967
2019-04-21T04:52:51.209Z,100971
2019-04-21T04:55:33.897Z,100967
2019-04-21T05:00:35.035Z,100965
2019-04-21T05:02:55.969Z,100967
2019-04-21T05:05:31.930Z,100964
2019-04-21T05:07:57.770Z,100959
2019-04-21T05:10:29.555Z,100966
2019-04-21T05:12:51.127Z,100968
2019-04-21T05:15:16.085Z,100965
2019-04-21T05:20:23.700Z,100962
2019-04-21T05:22:42.676Z,100957
2019-04-21T05:25:06.838Z,100963
2019-04-21T05:27:34.964Z,100965
2019-04-21T05:30:10.267Z,100971
2019-04-21T05:32:45.252Z,100964
2019-04-21T05:35:08.035Z,100968
2019-04-21T05:37:35.381Z,100964
2019-04-21T05:40:00.503Z,100963
2019-04-21T05:42:30.525Z,100967
2019-04-21T05:45:08.083Z,100972
2019-04-21T05:47:40.368Z,100966
2019-04-21T05:50:01.202Z,100973
2019-04-21T05:52:29.832Z,100963
2019-04-21T05:55:06.375Z,100973
2019-04-21T05:57:28.897Z,100968
2019-04-21T06:00:01.197Z,100968
2019-04-21T06:02:28.961Z,100965
2019-04-21T06:07:29.004Z,100975
2019-04-21T06:10:10.630Z,100969
2019-04-21T06:12:29.730Z,100976
2019-04-21T06:14:59.101Z,100967
2019-04-21T06:17:31.487Z,100968
2019-04-21T06:19:57.283Z,100965
2019-04-21T06:22:18.831Z,100967
2019-04-21T06:25:16.160Z,100971
2019-04-21T06:27:22.925Z,100976
2019-04-21T06:29:50.212Z,100966
2019-04-21T06:32:30.391Z,100964
2019-04-21T06:35:07.370Z,100958
2019-04-21T06:37:39.776Z,100959
2019-04-21T06:40:03.194Z,100963
2019-04-21T06:42:16.729Z,100962
2019-04-21T06:44:53.781Z,100958
2019-04-21T06:47:26.612Z,100959
2019-04-21T06:49:36.870Z,100970
2019-04-21T06:52:29.873Z,100964
2019-04-21T06:54:44.727Z,100968
2019-04-21T06:57:10.737Z,100965
2019-04-21T06:59:31.692Z,100962
2019-04-21T07:02:28.648Z,100959
2019-04-21T07:04:39.551Z,100962
2019-04-21T07:07:18.748Z,100957
2019-04-21T07:09:31.451Z,100960
2019-04-21T07:11:59.682Z,100954
2019-04-21T07:17:06.792Z,100961
2019-04-21T07:19:38.483Z,100960
2019-04-21T07:21:57.512Z,100960
2019-04-21T07:24:31.457Z,100956
2019-04-21T07:27:00.295Z,100962
2019-04-21T07:29:32.561Z,100955
2019-04-21T07:31:59.167Z,100956
2019-04-21T07:34:28.958Z,100958
2019-04-21T07:39:18.567Z,100940
2019-04-21T07:41:43.807Z,100944
2019-04-21T07:44:15.007Z,100939
2019-04-21T07:46:41.680Z,100940
2019-04-21T07:49:12.838Z,100942
2019-04-21T07:51:56.550Z,100940
2019-04-21T07:54:26.863Z,100939
2019-04-21T07:56:34.877Z,100938
2019-04-21T07:59:24.355Z,100941
2019-04-21T08:01:50.788Z,100939
2019-04-21T08:04:38.211Z,100939
2019-04-21T08:06:47.791Z,100931
2019-04-21T08:09:13.638Z,100937
2019-04-21T08:11:40.635Z,100931
2019-04-21T08:14:13.222Z,100930
2019-04-21T08:16:40.013Z,100928
2019-04-21T08:19:07.195Z,100930
2019-04-21T08:21:47.195Z,100919
2019-04-21T08:24:06.372Z,100916
2019-04-21T08:26:38.297Z,100915
2019-04-21T08:29:12.705Z,100918
2019-04-21T08:31:46.965Z,100914
2019-04-21T08:34:07.891Z,100914
2019-04-21T08:36:28.434Z,100910
2019-04-21T08:38:58.340Z,100911
2019-04-21T08:41:27.734Z,100919
2019-04-21T08:43:58.915Z,100913
2019-04-21T08:46:31.790Z,100912
2019-04-21T08:48:55.450Z,100903
2019-04-21T08:51:41.913Z,100899
2019-04-21T08:54:04.194Z,100902
2019-04-21T08:56:40.148Z,100898
2019-04-21T09:01:33.024Z,100925
2019-04-21T09:03:56.097Z,100901
2019-04-21T09:06:40.331Z,100905
2019-04-21T09:08:51.983Z,100897
2019-04-21T09:11:21.003Z,100897
2019-04-21T09:13:50.386Z,100888
2019-04-21T09:16:17.081Z,100891
2019-04-21T09:18:41.758Z,100888
2019-04-21T09:21:19.384Z,100876
2019-04-21T09:23:45.227Z,100878
2019-04-21T09:26:18.669Z,100875
2019-04-21T09:28:39.481Z,100873
2019-04-21T09:31:00.676Z,100877
2019-04-21T09:33:29.709Z,100872
2019-04-21T09:35:57.420Z,100859
2019-04-21T09:38:29.951Z,100864
2019-04-21T09:40:54.396Z,100863
2019-04-21T09:43:31.740Z,100856
2019-04-21T09:45:49.603Z,100856
2019-04-21T09:48:20.753Z,100848
2019-04-21T09:50:46.281Z,100852
2019-04-21T09:53:26.326Z,100852
2019-04-21T09:55:51.343Z,100839
2019-04-21T09:58:23.954Z,100839
2019-04-21T10:00:56.601Z,100838
2019-04-21T10:03:15.754Z,100831
2019-04-21T10:05:41.672Z,100822
2019-04-21T10:08:12.419Z,100822
2019-04-21T10:10:40.082Z,100819
2019-04-21T10:13:10.586Z,100810
2019-04-21T10:15:38.296Z,100808
2019-04-21T10:18:10.808Z,100804
2019-04-21T10:20:38.918Z,100804
2019-04-21T10:23:09.229Z,100797
2019-04-21T10:25:38.625Z,100797
2019-04-21T10:28:07.349Z,100780
2019-04-21T10:30:36.438Z,100789
2019-04-21T10:33:04.081Z,100786
2019-04-21T10:35:33.469Z,100778
2019-04-21T10:38:14.930Z,100771
2019-04-21T10:40:33.845Z,100772
2019-04-21T10:43:00.565Z,100777
2019-04-21T10:45:30.742Z,100766
2019-04-21T10:47:58.810Z,100759
2019-04-21T10:50:27.123Z,100755
2019-04-21T10:52:58.660Z,100749
2019-04-21T10:55:41.716Z,100746
2019-04-21T10:58:00.705Z,100745
2019-04-21T11:00:30.134Z,100744
2019-04-21T11:03:04.713Z,100740
2019-04-21T11:05:32.841Z,100734
2019-04-21T11:08:14.842Z,100726
2019-04-21T11:10:31.964Z,100719
2019-04-21T11:13:00.852Z,100716
2019-04-21T11:15:29.688Z,100720
2019-04-21T11:17:59.744Z,100724
2019-04-21T11:20:28.535Z,100713
2019-04-21T11:22:57.449Z,100704
2019-04-21T11:25:26.261Z,100705
2019-04-21T11:27:55.303Z,100697
2019-04-21T11:30:23.493Z,100698
2019-04-21T11:32:53.124Z,100708
2019-04-21T11:35:21.271Z,100703
2019-04-21T11:37:50.319Z,100695
2019-04-21T11:40:21.573Z,100693
2019-04-21T11:42:48.118Z,100691
2019-04-21T11:45:26.481Z,100692
2019-04-21T11:48:00.925Z,100681
2019-04-21T11:50:30.879Z,100680
2019-04-21T11:52:59.437Z,100672
2019-04-21T11:55:36.457Z,100677
2019-04-21T11:57:58.327Z,100674
2019-04-21T12:00:27.314Z,100661
2019-04-21T12:02:55.441Z,100663
2019-04-21T12:05:23.788Z,100661
2019-04-21T12:07:53.434Z,100659
2019-04-21T12:10:21.669Z,100666
2019-04-21T12:12:50.978Z,100658
2019-04-21T12:15:20.832Z,100648
2019-04-21T12:17:50.023Z,100653
2019-04-21T12:20:18.780Z,100650
2019-04-21T12:22:47.431Z,100641
2019-04-21T12:25:15.599Z,100652
2019-04-21T12:27:44.157Z,100646
2019-04-21T12:30:13.719Z,100637
2019-04-21T12:32:48.583Z,100624
2019-04-21T12:35:17.661Z,100634
2019-04-21T12:37:46.809Z,100628
2019-04-21T12:40:15.147Z,100625
2019-04-21T12:42:45.408Z,100620
2019-04-21T12:45:13.126Z,100615
2019-04-21T12:47:41.924Z,100615
2019-04-21T12:50:10.918Z,100609
2019-04-21T12:52:39.724Z,100594
2019-04-21T12:55:09.331Z,100602
2019-04-21T12:57:37.246Z,100592
2019-04-21T13:00:06.791Z,100591
2019-04-21T13:02:35.805Z,100582
2019-04-21T13:05:04.363Z,100591
2019-04-21T13:07:33.231Z,100648
2019-04-21T13:10:04.354Z,100575
2019-04-21T13:12:33.181Z,100573
2019-04-21T13:15:02.822Z,100565
2019-04-21T13:17:31.063Z,100565
2019-04-21T13:19:59.055Z,100562
2019-04-21T13:22:28.009Z,100564
2019-04-21T13:24:56.235Z,100554
2019-04-21T13:27:25.085Z,100557
2019-04-21T13:29:54.555Z,100555
2019-04-21T13:32:22.789Z,100546
2019-04-21T13:34:52.779Z,100543
2019-04-21T13:37:23.589Z,100538
2019-04-21T13:40:14.730Z,100550
2019-04-21T13:42:31.154Z,100537
2019-04-21T13:44:50.973Z,100531
2019-04-21T13:47:20.716Z,100524
2019-04-21T13:49:49.515Z,100516
2019-04-21T13:52:18.510Z,100524
2019-04-21T13:54:45.877Z,100515
2019-04-21T13:57:16.713Z,100512
2019-04-21T13:59:46.342Z,100504
2019-04-21T14:02:13.881Z,100499
2019-04-21T14:04:43.456Z,100492
2019-04-21T14:07:12.352Z,100497
2019-04-21T14:09:51.999Z,100497
2019-04-21T14:12:10.028Z,100485
2019-04-21T14:14:39.617Z,100476
2019-04-21T14:17:08.907Z,100480
2019-04-21T14:19:37.427Z,100478
2019-04-21T14:22:08.567Z,100477
2019-04-21T14:24:35.052Z,100480
2019-04-21T14:27:04.097Z,100480
2019-04-21T14:29:33.463Z,100478
2019-04-21T14:32:02.114Z,100470
2019-04-21T14:34:30.648Z,100473
2019-04-21T14:36:59.495Z,100462
2019-04-21T14:39:28.342Z,100469
2019-04-21T14:41:58.149Z,100462
2019-04-21T14:44:27.189Z,100465
2019-04-21T14:46:55.643Z,100455
2019-04-21T14:49:31.077Z,100456
2019-04-21T14:52:01.162Z,100453
2019-04-21T14:54:30.893Z,100454
2019-04-21T14:56:59.076Z,100439
2019-04-21T14:59:28.856Z,100447
2019-04-21T15:01:57.950Z,100438
2019-04-21T15:04:27.897Z,100433
2019-04-21T15:06:55.219Z,100433
2019-04-21T15:09:25.297Z,100438
2019-04-21T15:11:53.896Z,100439
2019-04-21T15:14:22.231Z,100434
2019-04-21T15:16:51.255Z,100431
2019-04-21T15:19:20.443Z,100425
2019-04-21T15:21:48.293Z,100422
2019-04-21T15:24:18.325Z,100421
2019-04-21T15:26:46.411Z,100426
2019-04-21T15:29:16.981Z,100424
2019-04-21T15:31:46.515Z,100423
2019-04-21T15:34:15.020Z,100423
2019-04-21T15:36:44.126Z,100410
2019-04-21T15:39:12.269Z,100407
2019-04-21T15:41:41.109Z,100406
2019-04-21T15:44:10.013Z,100401
2019-04-21T15:46:39.936Z,100403
2019-04-21T15:49:09.171Z,100397
2019-04-21T15:51:38.039Z,100399
2019-04-21T15:54:06.907Z,100391
2019-04-21T15:56:38.521Z,100388
2019-04-21T15:59:12.591Z,100389
2019-04-21T16:01:40.782Z,100387
2019-04-21T16:04:10.676Z,100391
2019-04-21T16:06:39.406Z,100390
2019-04-21T16:09:08.418Z,100380
2019-04-21T16:11:37.867Z,100381
2019-04-21T16:14:05.856Z,100380
2019-04-21T16:16:36.029Z,100389
2019-04-21T16:19:03.918Z,100382
2019-04-21T16:21:35.272Z,100370
2019-04-21T16:24:02.653Z,100370
2019-04-21T16:26:30.686Z,100372
2019-04-21T16:28:59.462Z,100367
2019-04-21T16:31:30.050Z,100370
2019-04-21T16:33:58.773Z,100358
2019-04-21T16:36:27.444Z,100357
2019-04-21T16:38:55.669Z,100359
2019-04-21T16:41:24.952Z,100353
2019-04-21T16:43:55.303Z,100351
2019-04-21T16:46:23.260Z,100346
2019-04-21T16:48:51.714Z,100353
2019-04-21T16:51:20.357Z,100350
2019-04-21T16:53:50.279Z,100343
2019-04-21T16:56:22.787Z,100343
2019-04-21T16:58:52.617Z,100344
2019-04-21T17:01:26.207Z,100343
2019-04-21T17:03:54.738Z,100340
2019-04-21T17:06:24.862Z,100334
2019-04-21T17:08:52.974Z,100324
2019-04-21T17:11:27.150Z,100332
2019-04-21T17:13:51.955Z,100323
2019-04-21T17:19:00.580Z,100324
2019-04-21T17:21:19.283Z,100324
2019-04-21T17:23:48.155Z,100317
2019-04-21T17:26:17.073Z,100318
2019-04-21T17:28:44.909Z,100319
2019-04-21T17:31:13.410Z,100314
2019-04-21T17:33:43.443Z,100318
2019-04-21T17:36:11.318Z,100319
2019-04-21T17:38:39.965Z,100311
2019-04-21T17:41:15.616Z,100311
2019-04-21T17:43:37.669Z,100307
2019-04-21T17:46:06.894Z,100311
2019-04-21T17:48:36.550Z,100316
2019-04-21T17:51:05.306Z,100310
2019-04-21T17:53:44.878Z,100313
2019-04-21T17:56:31.446Z,100311
2019-04-21T17:59:01.703Z,100312
2019-04-21T18:01:35.602Z,100313
2019-04-21T18:03:58.845Z,100314
2019-04-21T18:06:14.246Z,100314
2019-04-21T18:08:52.892Z,100314
2019-04-21T18:11:09.510Z,100321
2019-04-21T18:13:28.739Z,100311
2019-04-21T18:16:09.725Z,100306
2019-04-21T18:18:26.559Z,100312
2019-04-21T18:21:00.875Z,100312
2019-04-21T18:23:39.454Z,100313
2019-04-21T18:26:07.118Z,100316
2019-04-21T18:28:28.446Z,100313
2019-04-21T18:30:58.510Z,100315
2019-04-21T18:33:31.780Z,100310
2019-04-21T18:35:58.085Z,100307
2019-04-21T18:38:38.564Z,100310
2019-04-21T18:40:58.041Z,100305
2019-04-21T18:43:58.408Z,100314
2019-04-21T18:46:23.133Z,100301
2019-04-21T18:48:36.232Z,100315
2019-04-21T18:51:02.500Z,100314
2019-04-21T18:53:41.517Z,100311
2019-04-21T18:56:00.339Z,100310
2019-04-21T18:58:22.324Z,100315
2019-04-21T19:00:52.928Z,100311
2019-04-21T19:03:27.380Z,100309
2019-04-21T19:05:54.407Z,100312
2019-04-21T19:08:38.738Z,100315
2019-04-21T19:11:10.382Z,100311
2019-04-21T19:13:45.738Z,100317
2019-04-21T19:16:22.858Z,100324
2019-04-21T19:21:04.075Z,100315
2019-04-21T19:23:41.022Z,100313
2019-04-21T19:26:10.390Z,100316
2019-04-21T19:28:37.318Z,100311
2019-04-21T19:31:05.164Z,100313
2019-04-21T19:33:24.357Z,100309
2019-04-21T19:35:39.383Z,100311
2019-04-21T19:38:10.481Z,100309
2019-04-21T19:40:50.825Z,100304
2019-04-21T19:43:17.307Z,100303
2019-04-21T19:45:48.585Z,100302
2019-04-21T19:48:20.414Z,100291
2019-04-21T19:50:50.545Z,100293
2019-04-21T19:53:06.401Z,100299
2019-04-21T19:55:29.842Z,100292
2019-04-21T19:57:59.380Z,100295
2019-04-21T20:00:28.975Z,100291
2019-04-21T20:02:58.614Z,100297
2019-04-21T20:05:36.137Z,100284
2019-04-21T20:08:11.326Z,100285
2019-04-21T20:10:44.525Z,100278
2019-04-21T20:13:14.657Z,100272
2019-04-21T20:15:41.545Z,100281
2019-04-21T20:18:04.806Z,100269
2019-04-21T20:20:19.802Z,100264
2019-04-21T20:22:51.972Z,100263
2019-04-21T20:25:22.784Z,100271
2019-04-21T20:27:55.463Z,100273
2019-04-21T20:30:40.456Z,100267
2019-04-21T20:33:11.639Z,100270
2019-04-21T20:35:40.454Z,100265
2019-04-21T20:37:57.584Z,100262
2019-04-21T20:40:25.089Z,100265
2019-04-21T20:42:51.071Z,100263
2019-04-21T20:47:44.698Z,100262
2019-04-21T20:50:19.461Z,100264
2019-04-21T20:52:55.115Z,100259
2019-04-21T20:55:19.168Z,100260
2019-04-21T20:57:50.632Z,100257
2019-04-21T21:00:19.303Z,100249
2019-04-21T21:02:55.552Z,100245
2019-04-21T21:05:17.462Z,100243
2019-04-21T21:07:50.087Z,100248
2019-04-21T21:10:16.616Z,100244
2019-04-21T21:12:51.141Z,100235
2019-04-21T21:15:07.917Z,100242
2019-04-21T21:20:16.345Z,100240
2019-04-21T21:22:37.729Z,100240
2019-04-21T21:25:12.998Z,100232
2019-04-21T21:27:36.802Z,100241
2019-04-21T21:30:06.660Z,100262
2019-04-21T21:32:38.511Z,100239
2019-04-21T21:35:08.305Z,100241
2019-04-21T21:37:38.827Z,100242
2019-04-21T21:40:24.498Z,100242
2019-04-21T21:42:26.056Z,100236
2019-04-21T21:44:54.548Z,100244
2019-04-21T21:47:30.426Z,100244
2019-04-21T21:49:57.790Z,100240
2019-04-21T21:52:30.054Z,100239
2019-04-21T21:54:45.510Z,100236
2019-04-21T21:57:14.685Z,100225
2019-04-21T21:59:43.578Z,100230
2019-04-21T22:02:17.168Z,100228
2019-04-21T22:04:51.278Z,100226
2019-04-21T22:07:15.163Z,100227
2019-04-21T22:09:39.911Z,100225
2019-04-21T22:12:10.260Z,100225
2019-04-21T22:14:41.632Z,100216
2019-04-21T22:17:21.772Z,100215
2019-04-21T22:20:00.406Z,100213
2019-04-21T22:22:21.574Z,100219
2019-04-21T22:24:46.661Z,100222
2019-04-21T22:27:03.125Z,100220
2019-04-21T22:31:27.781Z,100212
2019-04-21T22:33:54.878Z,100217
2019-04-21T22:36:33.042Z,100217
2019-04-21T22:39:09.200Z,100215
2019-04-21T22:41:26.577Z,100219
2019-04-21T22:43:51.502Z,100219
2019-04-21T22:46:16.270Z,100214
2019-04-21T22:48:52.083Z,100205
2019-04-21T22:51:20.328Z,100212
2019-04-21T22:53:48.298Z,100215
2019-04-21T22:56:19.780Z,100209
2019-04-21T22:58:42.924Z,100208
2019-04-21T23:01:10.931Z,100215
2019-04-21T23:03:40.170Z,100208
2019-04-21T23:06:15.570Z,100207
2019-04-21T23:08:40.540Z,100195
2019-04-21T23:11:08.645Z,100202
2019-04-21T23:13:34.551Z,100211
2019-04-21T23:16:04.150Z,100206
2019-04-21T23:18:46.083Z,100201
2019-04-21T23:21:15.010Z,100203
2019-04-21T23:23:53.164Z,100207
2019-04-21T23:26:18.179Z,100203
2019-04-21T23:28:45.533Z,100205
2019-04-21T23:31:18.689Z,100200
2019-04-21T23:33:25.736Z,100194
2019-04-21T23:36:02.621Z,100201
2019-04-21T23:38:31.815Z,100205
2019-04-21T23:40:57.775Z,100203
2019-04-21T23:43:25.858Z,100194
2019-04-21T23:45:52.128Z,100195
2019-04-21T23:48:34.905Z,100191
2019-04-21T23:50:55.050Z,100192
2019-04-21T23:53:19.454Z,100193
2019-04-21T23:55:47.423Z,100196
2019-04-21T23:58:23.224Z,100197
